Kodiak, AK (99615)

6:20 PM AKST on February 09, 2016 (GMT -0900)
Kodiak College | | Change Station
CLOSE
Current Station
Personal Weather Station
Location: Kodiak, AK
Elevation: 154 ft
Nearby Weather Stations

Elev 154 ft 57.81 °N, 152.37 °W | Updated 2 minutes ago

Overcast
Overcast
39.7 °F
Feels Like 34 °F
N
8.3
Wind Variable Wind from North

Today
High -- | Low -- °F
--% Chance of Precip.
Yesterday
High -- | Low -- °F
Precip. -- in
Pressure 29.71 in
Visibility 10.0 miles
Clouds Scattered Clouds 1700 ft
Mostly Cloudy 2400 ft
Overcast 3100 ft
Windchill 34 °F
Dew Point 37 °F
Humidity 91%
Rainfall 0.05 in
Snow Depth Not available.
8:55 AM 5:53 PM
Waxing Crescent, 3% visible
METAR PADQ 100253Z AUTO 04016KT 10SM SCT017 BKN024 OVC031 03/02 A2971 RMK AO2 RAE0158UPB28E38 SLP061 P0000 60000 T00280022 58030 TSNO
Pressure 29.71 in
Visibility 10.0 miles
Clouds Scattered Clouds 1700 ft
Mostly Cloudy 2400 ft
Overcast 3100 ft
Windchill 34 °F
Dew Point 37 °F
Humidity 91%
Rainfall 0.05 in
Snow Depth Not available.
8:55 AM 5:53 PM
Waxing Crescent, 3% visible
METAR PADQ 100253Z AUTO 04016KT 10SM SCT017 BKN024 OVC031 03/02 A2971 RMK AO2 RAE0158UPB28E38 SLP061 P0000 60000 T00280022 58030 TSNO

10-Day Weather Forecast

Almanac

Astronomy

Feb. 09, 2016 Rise Set
Actual Time
Civil Twilight
Nautical Twilight
Astronomical Twilight
Moon
Length of Visible Light
Length of Day
Tomorrow will be .
, % of the Moon is Illuminated

Today's Extremes

State Highs State Lows

Community

WunderPhotos

Upload Photos

1,891,788 photos uploaded!

WunderBlog® & News

Nearby

Air Quality

  Air Quality AQ Index Pollutant
Not available.

Snow Depth

Station Depth Elevation

Earthquake Activity

City Distance Mag. Time & Date
Minimum magnitude displayed is 2.5.

Coastal Water Temperatures

Place Temperature

Stations

Nearby Weather Stations

Station Location Temp. Windchill Dew Point Humidity Wind Precip. Elev Updated Type
                   

Watches & Warnings

There are currently no watches in effect.